Nome Airport Nome US
ICAO: PAOM
IATA:
Category: Medium
Scheduled Services:

Elevation: 37 ft
TransAlt. 18000 ft.

Airport Communications:
ASOS:119.925
ATIS:119.925
ANCHORAGE CNTR:133.3
CTAF:123.6
RDO:122.45
TWEB:115

PAOM Zoom In..

If Map Doesn't Load, Click Here

Runways:

(A) RW 03 length 5576 ft width 150 ft
---- / hdg 28

(B) RW 10 length 6001 ft width 150 ft
---- / hdg 96

(C) RW 21 length 5576 ft width 150 ft
---- / hdg 208

(D) RW 28 length 6001 ft width 150 ft
ILS 108.70 / hdg 276

Location; PAOM
Day. 23 / Time. 20.53 Zulu
* Altimeter: 29.51
* Temperature: 09° c. 48.2°f.
* Wind from: 030° Speed 12 kn.
Dewpoint: 04° c.
Visibility: 10 Statute Miles.
Clouds: Scattered 3300 ft.
Clouds: Broken 5500 ft.

PAOM 232053Z 03012KT 10SM SCT033 BKN055 09/04 A2951 RMK AO2 SLP993 T00940044 53009


Wind From 030°
Speed 12 kn.

 
 
jpsmedia.com for Web Design worldairports.se 2018   terms of use